Time;durP1;ratioP1;P1;durP2;ratioP2;P2;SDS_P1;SDS_P2;PMS_P1;PMS_P2;Temp;Humidity;BMP_temperature;BMP_pressure;BME280_temperature;BME280_humidity;BME280_pressure;Samples;Min_cycle;Max_cycle;Signal;HPM_P1;HPM_P2
2024/04/22 00:03:12;;;;;;;5.70;2.50;;;;;;;3.26;66.90;100820.06;126191;1303;128126;-60
2024/04/22 00:06:43;;;;;;;;;;;;;;;3.24;66.63;100823.81;125730;1301;114951;-59
2024/04/22 00:10:27;;;;;;;;;;;;;;;;;;;;;
2024/04/22 00:14:13;;;;;;;;;;;;;;;;;;;;;
2024/04/22 00:18:15;;;;;;;6.40;2.80;;;;;;;3.10;66.45;100820.61;125727;1315;114936;-60
2024/04/22 00:26:06;;;;;;;5.60;2.90;;;;;;;3.03;66.42;100810.08;125731;1297;636203;-59
2024/04/22 00:30:10;;;;;;;4.90;2.50;;;;;;;2.98;66.27;100806.78;128656;1274;128910;-60
2024/04/22 00:33:57;;;;;;;3.80;2.80;;;;;;;2.94;66.17;100809.12;128431;1276;114851;-61
2024/04/22 00:37:58;;;;;;;;;;;;;;;;;;;;;
2024/04/22 00:41:33;;;;;;;5.10;3.00;;;;;;;2.75;65.31;100805.60;123461;1288;114872;-61
2024/04/22 00:45:39;;;;;;;7.60;2.90;;;;;;;2.68;65.22;100807.77;127060;1281;114958;-60
2024/04/22 00:49:21;;;;;;;;;;;;;;;;;;;;;
2024/04/22 00:53:31;;;;;;;;;;;;;;;;;;;;;
2024/04/22 00:57:26;;;;;;;;;;;;;;;;;;;;;
2024/04/22 01:05:23;;;;;;;;;;;;;;;;;;;;;
2024/04/22 01:09:17;;;;;;;;;;;;;;;;;;;;;
2024/04/22 01:16:47;;;;;;;;;;;;;;;2.30;64.88;100823.94;127377;1303;115253;-60
2024/04/22 01:20:29;;;;;;;4.80;2.60;;;;;;;2.23;64.80;100823.45;123008;1308;114981;-61
2024/04/22 01:24:33;;;;;;;3.90;2.30;;;;;;;2.18;64.43;100824.02;126915;1298;116366;-61
2024/04/22 01:28:33;;;;;;;5.90;2.40;;;;;;;2.10;64.37;100825.65;126171;1313;114790;-61
2024/04/22 01:32:25;;;;;;;8.20;4.00;;;;;;;2.07;64.39;100823.20;125604;1301;129028;-61
2024/04/22 01:36:00;;;;;;;;;;;;;;;;;;;;;
2024/04/22 01:39:55;;;;;;;;;;;;;;;;;;;;;
2024/04/22 01:43:49;;;;;;;;;;;;;;;;;;;;;
2024/04/22 01:51:53;;;;;;;;;;;;;;;;;;;;;
2024/04/22 01:55:31;;;;;;;4.60;2.30;;;;;;;1.85;63.72;100821.03;127515;1283;129134;-60
2024/04/22 01:59:34;;;;;;;6.40;2.30;;;;;;;1.82;63.82;100820.17;127802;1289;115036;-60
2024/04/22 02:03:23;;;;;;;6.20;2.40;;;;;;;1.80;63.94;100823.36;126406;1303;114976;-59
2024/04/22 02:07:13;;;;;;;2.70;1.60;;;;;;;1.78;63.91;100822.13;122850;1308;114918;-60
2024/04/22 02:10:54;;;;;;;;;;;;;;;;;;;;;
2024/04/22 02:14:28;;;;;;;;;;;;;;;;;;;;;
2024/04/22 02:18:24;;;;;;;4.70;2.30;;;;;;;1.66;64.04;100825.70;126536;1300;128867;-60
2024/04/22 02:21:36;;;;;;;2.80;1.90;;;;;;;1.63;63.69;100823.61;126085;1294;114934;-61
2024/04/22 02:25:24;;;;;;;5.40;2.50;;;;;;;1.61;64.20;100824.84;125980;1302;114938;-61
2024/04/22 02:28:49;;;;;;;5.10;2.60;;;;;;;1.60;64.18;100821.69;125458;1304;115032;-60
2024/04/22 02:32:04;;;;;;;5.80;2.80;;;;;;;1.60;64.31;100821.86;125780;1315;115069;-61
2024/04/22 02:35:24;;;;;;;8.10;3.20;;;;;;;1.59;64.37;100821.85;125809;1315;128964;-59
2024/04/22 02:39:08;;;;;;;8.10;3.80;;;;;;;1.60;64.66;100816.05;126108;1297;114972;-60
2024/04/22 02:46:07;;;;;;;4.00;2.20;;;;;;;1.64;64.89;100817.27;128640;1271;115016;-60
2024/04/22 02:49:35;;;;;;;3.90;2.40;;;;;;;1.65;65.02;100816.56;128667;1291;115225;-60
2024/04/22 02:53:06;;;;;;;5.50;2.80;;;;;;;1.66;65.07;100817.09;128178;1274;127913;-60
2024/04/22 02:56:38;;;;;;;5.80;2.20;;;;;;;1.67;65.12;100820.41;128640;1291;114945;-60
2024/04/22 03:00:07;;;;;;;5.00;2.70;;;;;;;1.69;65.20;100820.05;129076;1270;114856;-60
2024/04/22 03:03:30;;;;;;;3.70;2.20;;;;;;;1.70;65.54;100821.45;129217;1286;114985;-60
2024/04/22 03:06:55;;;;;;;4.10;2.80;;;;;;;1.70;65.23;100816.71;129515;1279;114892;-59
2024/04/22 03:10:26;;;;;;;;;;;;;;;;;;;;;
2024/04/22 03:13:51;;;;;;;4.40;3.20;;;;;;;1.69;65.72;100816.36;129477;1267;114736;-60
2024/04/22 03:17:00;;;;;;;5.80;2.40;;;;;;;1.68;65.95;100813.73;129713;1256;114733;-60
2024/04/22 03:20:03;;;;;;;5.10;2.90;;;;;;;1.69;65.90;100809.14;129670;1261;114891;-61
2024/04/22 03:23:08;;;;;;;6.20;2.80;;;;;;;1.69;65.93;100808.44;129744;1274;114732;-59
2024/04/22 03:26:10;;;;;;;4.40;3.50;;;;;;;1.66;66.19;100810.73;129738;1279;129258;-59
2024/04/22 03:29:13;;;;;;;5.40;3.60;;;;;;;1.62;65.95;100805.30;129722;1277;115172;-61
2024/04/22 03:32:15;;;;;;;4.90;3.20;;;;;;;1.56;66.18;100804.62;129712;1279;114802;-61
2024/04/22 03:35:18;;;;;;;6.20;3.90;;;;;;;1.52;66.26;100804.13;129817;1260;115138;-60
2024/04/22 03:38:19;;;;;;;5.40;3.30;;;;;;;1.44;66.21;100801.85;129798;1257;114773;-61
2024/04/22 03:41:31;;;;;;;6.50;4.00;;;;;;;1.36;66.16;100801.37;129717;1273;114811;-61
2024/04/22 03:44:33;;;;;;;6.40;3.60;;;;;;;1.28;66.39;100799.63;129640;1262;128893;-60
2024/04/22 03:51:25;;;;;;;6.90;3.90;;;;;;;1.08;66.71;100800.03;129708;1277;114727;-61
2024/04/22 03:54:28;;;;;;;7.30;3.40;;;;;;;0.98;66.65;100801.64;129746;1279;114791;-61
2024/04/22 03:57:30;;;;;;;6.60;4.10;;;;;;;0.90;66.69;100803.23;129745;1278;114676;-60
2024/04/22 04:00:32;;;;;;;5.30;3.30;;;;;;;0.84;67.11;100802.88;129701;1276;114783;-59
2024/04/22 04:03:46;;;;;;;6.10;3.60;;;;;;;0.77;67.21;100808.17;129634;1278;127831;-61
2024/04/22 04:06:48;;;;;;;8.20;4.40;;;;;;;0.71;67.39;100805.89;129786;1261;114758;-60
2024/04/22 04:10:43;;;;;;;;;;;;;;;;;;;;;
2024/04/22 04:14:21;;;;;;;7.20;4.30;;;;;;;0.58;67.60;100810.30;129557;1276;114772;-60
2024/04/22 04:17:31;;;;;;;7.80;4.10;;;;;;;0.53;67.81;100808.89;129503;1279;114920;-59
2024/04/22 04:20:45;;;;;;;8.40;4.40;;;;;;;0.48;67.85;100809.08;130409;1255;128016;-59
2024/04/22 04:24:21;;;;;;;12.80;4.90;;;;;;;0.45;68.30;100813.81;129788;1277;114839;-60
2024/04/22 04:27:28;;;;;;;15.50;6.20;;;;;;;0.43;68.13;100813.27;129664;1278;114909;-60
2024/04/22 04:30:39;;;;;;;15.80;7.40;;;;;;;0.43;68.66;100819.09;130188;1260;114788;-60
2024/04/22 04:34:30;;;;;;;18.20;8.70;;;;;;;0.44;68.62;100818.91;129530;1278;114898;-60
2024/04/22 04:38:24;;;;;;;19.70;10.10;;;;;;;0.49;68.95;100817.33;129793;1260;128028;-62
2024/04/22 04:41:38;;;;;;;;;;;;;;;;;;;;;
2024/04/22 04:44:55;;;;;;;21.10;10.60;;;;;;;0.64;69.23;100817.14;129098;1284;114807;-59
2024/04/22 04:48:38;;;;;;;;;;;;;;;;;;;;;
2024/04/22 04:52:36;;;;;;;;;;;;;;;;;;;;;
2024/04/22 04:56:16;;;;;;;;;;;;;;;;;;;;;
2024/04/22 04:59:50;;;;;;;18.20;11.20;;;;;;;1.62;69.87;100821.84;127775;1300;114985;-60
2024/04/22 05:03:17;;;;;;;26.00;12.10;;;;;;;2.00;69.38;100818.84;127246;1285;114977;-61
2024/04/22 05:07:02;;;;;;;21.30;11.80;;;;;;;2.21;69.27;100825.05;127094;1283;114910;-61
2024/04/22 05:11:03;;;;;;;22.00;13.70;;;;;;;2.47;68.96;100826.10;127275;1304;114926;-61
2024/04/22 05:14:52;;;;;;;;;;;;;;;;;;;;;
2024/04/22 05:18:29;;;;;;;22.80;11.40;;;;;;;3.46;68.40;100828.86;125403;1299;114821;-62
2024/04/22 05:22:19;;;;;;;17.50;9.10;;;;;;;4.03;67.83;100827.95;125262;1300;114977;-64
2024/04/22 05:25:48;;;;;;;22.00;11.60;;;;;;;4.39;67.17;100824.77;124882;1327;116808;-62
2024/04/22 05:29:23;;;;;;;15.50;9.40;;;;;;;4.85;66.83;100821.73;124631;1327;114975;-62
2024/04/22 05:32:53;;;;;;;;;;;;;;;;;;;;;
2024/04/22 05:40:01;;;;;;;16.00;8.60;;;;;;;5.36;64.83;100823.62;126259;1287;114987;-62
2024/04/22 05:43:37;;;;;;;12.00;8.20;;;;;;;5.31;64.65;100821.40;126299;1295;115307;-61
2024/04/22 05:47:33;;;;;;;13.70;7.40;;;;;;;5.35;64.70;100825.05;126166;1311;115295;-62
2024/04/22 05:51:03;;;;;;;13.80;6.70;;;;;;;5.43;64.39;100829.34;126293;1301;129653;-61
2024/04/22 05:54:40;;;;;;;14.10;6.40;;;;;;;5.56;64.35;100828.73;127664;1297;115313;-62
2024/04/22 05:58:21;;;;;;;17.90;6.50;;;;;;;6.07;63.92;100829.77;128121;1279;114837;-62
2024/04/22 06:02:10;;;;;;;8.70;5.30;;;;;;;6.62;62.95;100823.89;127432;1292;114975;-63
2024/04/22 06:06:13;;;;;;;13.90;5.80;;;;;;;7.11;62.73;100817.51;128628;1270;114903;-62
2024/04/22 06:10:08;;;;;;;8.40;4.60;;;;;;;7.64;61.60;100810.71;127344;1285;129085;-61
2024/04/22 06:13:31;;;;;;;8.40;4.40;;;;;;;8.02;60.51;100810.48;126692;1286;114869;-61
2024/04/22 06:17:21;;;;;;;6.50;3.40;;;;;;;8.40;59.78;100816.23;126896;1288;114882;-62
2024/04/22 06:21:15;;;;;;;;;;;;;;;;;;;;;
2024/04/22 06:25:08;;;;;;;4.90;3.70;;;;;;;9.91;57.93;100811.66;127927;1280;114828;-63
2024/04/22 06:29:09;;;;;;;;;;;;;;;;;;;;;
2024/04/22 06:32:57;;;;;;;;;;;;;;;;;;;;;
2024/04/22 06:36:44;;;;;;;5.00;3.70;;;;;;;11.61;54.66;100800.81;126965;1288;114939;-62
2024/04/22 06:40:11;;;;;;;7.00;4.40;;;;;;;11.81;53.51;100803.15;127866;1283;114865;-62
2024/04/22 06:44:03;;;;;;;4.90;3.40;;;;;;;12.06;53.69;100803.78;128077;1278;114887;-62
2024/04/22 06:48:00;;;;;;;;;;;;;;;;;;;;;
2024/04/22 06:51:40;;;;;;;5.20;3.60;;;;;;;12.18;51.96;100813.43;127817;1295;114901;-62
2024/04/22 06:54:53;;;;;;;6.50;4.20;;;;;;;12.04;50.90;100812.65;128360;1295;114916;-62
2024/04/22 06:58:24;;;;;;;6.00;3.20;;;;;;;12.01;51.18;100811.01;128311;1295;114906;-62
2024/04/22 07:01:47;;;;;;;4.60;3.30;;;;;;;12.17;49.84;100812.56;128215;1279;115263;-63
2024/04/22 07:05:27;;;;;;;5.10;3.10;;;;;;;11.90;49.72;100810.80;128451;1267;127779;-62
2024/04/22 07:08:59;;;;;;;6.10;4.10;;;;;;;11.79;49.74;100814.69;128664;1271;114888;-61
2024/04/22 07:12:46;;;;;;;4.80;3.00;;;;;;;11.93;49.06;100810.63;128789;1267;114834;-62
2024/04/22 07:16:20;;;;;;;;;;;;;;;;;;;;;
2024/04/22 07:20:22;;;;;;;9.90;3.80;;;;;;;12.42;49.08;100809.95;128057;1297;114907;-62
2024/04/22 07:23:31;;;;;;;6.20;3.80;;;;;;;12.79;48.44;100808.87;127916;1271;129740;-61
2024/04/22 07:26:42;;;;;;;7.90;4.30;;;;;;;13.14;48.35;100809.23;129048;1285;114735;-63
2024/04/22 07:30:12;;;;;;;6.90;3.90;;;;;;;12.94;47.59;100812.39;129381;1267;114919;-62
2024/04/22 07:33:41;;;;;;;7.00;5.00;;;;;;;12.39;47.05;100818.13;129252;1278;114921;-62
2024/04/22 07:37:27;;;;;;;8.20;4.30;;;;;;;11.82;47.38;100825.82;129050;1270;114935;-62
2024/04/22 07:41:13;;;;;;;;;;;;;;;;;;;;;
2024/04/22 07:45:16;;;;;;;6.60;4.20;;;;;;;10.99;47.57;100843.45;128767;1290;114925;-61
2024/04/22 07:49:19;;;;;;;;;;;;;;;;;;;;;
2024/04/22 07:53:10;;;;;;;8.20;4.80;;;;;;;10.14;48.10;100842.57;127001;1283;116584;-61
2024/04/22 07:56:48;;;;;;;7.10;4.90;;;;;;;9.87;48.00;100845.71;126928;1283;115369;-61
2024/04/22 08:00:27;;;;;;;8.80;5.30;;;;;;;9.64;47.92;100848.36;127332;1282;128594;-61
2024/04/22 08:04:10;;;;;;;7.70;5.80;;;;;;;9.53;48.12;100849.11;127019;1288;114872;-61
2024/04/22 08:08:14;;;;;;;10.40;5.50;;;;;;;9.42;48.30;100845.22;127251;1301;115464;-62
2024/04/22 08:11:49;;;;;;;5.20;2.70;;;;;;;9.19;47.47;100857.98;127322;1304;114969;-62
2024/04/22 08:15:42;;;;;;;6.70;4.10;;;;;;;8.99;47.61;100853.30;126781;1306;114955;-62
2024/04/22 08:19:37;;;;;;;;;;;;;;;;;;;;;
2024/04/22 08:23:29;;;;;;;5.00;2.60;;;;;;;8.88;47.70;100861.88;126505;1289;114944;-62
2024/04/22 08:27:13;;;;;;;3.30;2.20;;;;;;;8.83;47.19;100861.16;127013;1283;114971;-62
2024/04/22 08:31:20;;;;;;;;;;;;;;;;;;;;;
2024/04/22 08:35:02;;;;;;;;;;;;;;;;;;;;;
2024/04/22 08:38:59;;;;;;;;;;;;;;;;;;;;;
2024/04/22 08:42:43;;;;;;;5.30;2.70;;;;;;;8.90;46.29;100864.31;127637;1299;114863;-61
2024/04/22 08:46:28;;;;;;;3.50;2.50;;;;;;;8.85;45.62;100868.20;127320;1286;114779;-61
2024/04/22 08:50:07;;;;;;;;;;;;;;;;;;;;;
2024/04/22 08:53:45;;;;;;;4.30;1.90;;;;;;;8.55;45.64;100872.73;127282;1302;114905;-61
2024/04/22 08:57:46;;;;;;;;;;;;;;;;;;;;;
2024/04/22 09:01:54;;;;;;;5.20;1.80;;;;;;;8.71;46.31;100865.48;127325;1301;114944;-62
2024/04/22 09:05:29;;;;;;;4.20;2.00;;;;;;;8.74;45.28;100862.87;127147;1301;114864;-61
2024/04/22 09:09:18;;;;;;;3.40;1.90;;;;;;;8.71;45.44;100858.19;127365;1301;114869;-62
2024/04/22 09:13:09;;;;;;;5.10;1.80;;;;;;;8.81;45.49;100856.23;126768;1289;114956;-62
2024/04/22 09:16:56;;;;;;;2.90;1.80;;;;;;;8.99;45.01;100854.38;126637;1303;128664;-62
2024/04/22 09:20:53;;;;;;;4.50;1.80;;;;;;;9.08;45.00;100855.69;126755;1290;114915;-61
2024/04/22 09:24:38;;;;;;;2.90;1.70;;;;;;;9.20;45.26;100856.50;126433;1289;115039;-62
2024/04/22 09:28:26;;;;;;;4.40;1.30;;;;;;;9.23;44.40;100858.89;126979;1285;114943;-62
2024/04/22 09:32:06;;;;;;;;;;;;;;;;;;;;;
2024/04/22 09:35:54;;;;;;;3.00;1.80;;;;;;;8.85;43.36;100860.00;126663;1303;129954;-62
2024/04/22 09:39:42;;;;;;;;;;;;;;;;;;;;;
2024/04/22 09:43:29;;;;;;;3.70;2.40;;;;;;;8.67;44.18;100860.98;126137;1304;116030;-61
2024/04/22 09:46:48;;;;;;;;;;;;;;;;;;;;;
2024/04/22 09:50:31;;;;;;;3.30;1.90;;;;;;;8.32;43.96;100870.05;126687;1303;114832;-62
2024/04/22 09:54:24;;;;;;;3.50;1.70;;;;;;;8.23;44.26;100871.91;127257;1281;128398;-63
2024/04/22 09:58:01;;;;;;;;;;;;;;;;;;;;;
2024/04/22 10:01:52;;;;;;;5.10;2.10;;;;;;;8.08;44.68;100876.29;126753;1283;115715;-62
2024/04/22 10:05:39;;;;;;;7.00;2.40;;;;;;;8.16;44.46;100872.30;126141;1312;115293;-62
2024/04/22 10:09:21;;;;;;;;;;;;;;;8.29;44.90;100871.91;125527;1297;114901;-62
2024/04/22 10:13:09;;;;;;;;;;;;;;;;;;;;;
2024/04/22 10:17:14;;;;;;;3.00;1.90;;;;;;;8.58;44.39;100869.63;125243;1319;114984;-62
2024/04/22 10:20:51;;;;;;;10.40;3.70;;;;;;;8.70;44.65;100864.78;125295;1323;114958;-62
2024/04/22 10:24:36;;;;;;;4.40;2.50;;;;;;;8.90;44.91;100860.93;125213;1317;114944;-62
2024/04/22 10:28:18;;;;;;;;;;;;;;;;;;;;;
2024/04/22 10:32:11;;;;;;;;;;;;;;;;;;;;;
2024/04/22 10:36:20;;;;;;;3.50;1.90;;;;;;;9.19;43.80;100855.84;126106;1292;636120;-63
2024/04/22 10:39:51;;;;;;;2.80;1.60;;;;;;;9.31;44.44;100850.76;128477;1278;128595;-64
2024/04/22 10:43:38;;;;;;;;;;;;;;;;;;;;;
2024/04/22 10:47:40;;;;;;;;;;;;;;;;;;;;;
2024/04/22 10:51:34;;;;;;;;;;;;;;;;;;;;;
2024/04/22 10:55:15;;;;;;;3.10;2.00;;;;;;;9.80;43.98;100846.70;126158;1289;114914;-62
2024/04/22 10:59:26;;;;;;;5.20;2.00;;;;;;;9.84;43.96;100843.67;126022;1301;114896;-62
2024/04/22 11:03:10;;;;;;;3.90;2.30;;;;;;;9.85;44.00;100847.03;125632;1301;129747;-63
2024/04/22 11:06:41;;;;;;;3.00;1.90;;;;;;;9.91;44.11;100852.70;125310;1304;114988;-62
2024/04/22 11:10:32;;;;;;;2.70;1.80;;;;;;;9.92;43.91;100856.44;125402;1322;114912;-62
2024/04/22 11:18:45;;;;;;;3.40;1.20;;;;;;;9.89;43.45;100859.17;126324;1295;636057;-63
2024/04/22 11:22:30;;;;;;;2.50;1.80;;;;;;;9.81;43.20;100858.77;129114;1271;127651;-63
2024/04/22 11:26:28;;;;;;;2.30;1.60;;;;;;;9.93;43.76;100857.98;128883;1266;114890;-61
2024/04/22 11:30:18;;;;;;;2.50;1.20;;;;;;;10.10;43.03;100857.71;127766;1281;114925;-62
2024/04/22 11:34:15;;;;;;;2.90;1.70;;;;;;;10.07;42.66;100855.48;124680;1284;114904;-62
2024/04/22 11:38:13;;;;;;;;;;;;;;;;;;;;;
2024/04/22 11:41:48;;;;;;;2.10;1.10;;;;;;;10.18;42.32;100851.83;127457;1286;114868;-62
2024/04/22 11:46:04;;;;;;;3.80;1.60;;;;;;;10.10;42.08;100846.62;127181;1285;131187;-63
2024/04/22 11:49:59;;;;;;;3.00;2.00;;;;;;;10.13;42.63;100846.34;126736;1288;114888;-62
2024/04/22 11:53:51;;;;;;;2.50;1.60;;;;;;;10.22;42.56;100846.89;125985;1307;115020;-63
2024/04/22 12:01:32;;;;;;;;;;;;;;;;;;;;;
2024/04/22 12:05:25;;;;;;;;;;;;;;;;;;;;;
2024/04/22 12:09:19;;;;;;;2.30;1.50;;;;;;;9.63;41.86;100848.02;127790;1280;114877;-61
2024/04/22 12:17:10;;;;;;;2.00;1.40;;;;;;;9.52;42.35;100847.71;124157;1299;115362;-63
2024/04/22 12:20:56;;;;;;;;;;;;;;;;;;;;;
2024/04/22 12:24:34;;;;;;;2.80;1.40;;;;;;;9.57;42.52;100840.59;126490;1293;114926;-62
2024/04/22 12:28:15;;;;;;;;;;;;;;;;;;;;;
2024/04/22 12:31:59;;;;;;;2.60;1.60;;;;;;;9.65;42.03;100845.10;126941;1280;114994;-63
2024/04/22 12:35:44;;;;;;;4.00;1.30;;;;;;;9.59;42.20;100844.43;126454;1291;114870;-61
2024/04/22 12:39:31;;;;;;;2.40;1.20;;;;;;;9.63;42.60;100846.42;126486;1306;114965;-62
2024/04/22 12:43:33;;;;;;;2.60;1.60;;;;;;;9.62;41.97;100847.52;126470;1289;114991;-62
2024/04/22 12:51:39;;;;;;;;;;;;;;;9.69;42.59;100851.58;126005;1298;114876;-62
2024/04/22 12:54:43;;;;;;;3.30;1.90;;;;;;;9.72;42.64;100853.41;126143;1311;114929;-62
2024/04/22 12:58:42;;;;;;;;;;;;;;;;;;;;;
2024/04/22 13:02:32;;;;;;;2.90;1.50;;;;;;;9.57;42.12;100855.76;127353;1304;114841;-62
2024/04/22 13:06:08;;;;;;;3.00;1.00;;;;;;;9.50;41.99;100857.61;127152;1280;129822;-61
2024/04/22 13:09:41;;;;;;;;;;;;;;;;;;;;;
2024/04/22 13:13:26;;;;;;;3.50;1.50;;;;;;;9.41;42.36;100857.36;127541;1278;114898;-63
2024/04/22 13:17:27;;;;;;;;;;;;;;;;;;;;;
2024/04/22 13:21:30;;;;;;;10.60;4.90;;;;;;;9.27;42.58;100864.83;126673;1306;114983;-63
2024/04/22 13:25:28;;;;;;;4.30;2.60;;;;;;;9.18;42.78;100866.58;126955;1294;128932;-63
2024/04/22 13:29:07;;;;;;;4.50;1.60;;;;;;;9.00;42.18;100871.83;126669;1286;114962;-63
2024/04/22 13:32:53;;;;;;;1.50;1.00;;;;;;;8.86;42.25;100874.77;126537;1291;114924;-63
2024/04/22 13:36:55;;;;;;;;;;;;;;;;;;;;;
2024/04/22 13:40:42;;;;;;;2.70;1.60;;;;;;;8.73;43.01;100870.90;125720;1304;114883;-62
2024/04/22 13:44:37;;;;;;;;;;;;;;;;;;;;;
2024/04/22 13:48:15;;;;;;;6.40;3.60;;;;;;;8.82;42.67;100868.30;125692;1312;114981;-61
2024/04/22 13:51:52;;;;;;;6.10;2.30;;;;;;;8.98;42.68;100870.11;125852;1316;115170;-61
2024/04/22 13:55:42;;;;;;;;;;;;;;;;;;;;;
2024/04/22 13:59:14;;;;;;;;;;;;;;;;;;;;;
2024/04/22 14:03:00;;;;;;;;;;;;;;;;;;;;;
2024/04/22 14:06:58;;;;;;;3.70;1.70;;;;;;;8.85;41.54;100864.11;127035;1306;115434;-61
2024/04/22 14:10:50;;;;;;;2.70;1.40;;;;;;;8.54;41.81;100866.00;126305;1311;114914;-61
2024/04/22 14:14:42;;;;;;;3.00;1.20;;;;;;;8.41;42.87;100868.14;126355;1292;114937;-60
2024/04/22 14:18:23;;;;;;;;;;;;;;;8.35;42.55;100864.08;126777;1289;114910;-61
2024/04/22 14:22:09;;;;;;;;;;;;;;;;;;;;;
2024/04/22 14:25:53;;;;;;;6.60;3.00;;;;;;;8.25;42.79;100869.01;126691;1291;116558;-61
2024/04/22 14:29:44;;;;;;;;;;;;;;;;;;;;;
2024/04/22 14:33:29;;;;;;;5.30;2.90;;;;;;;8.39;43.11;100869.29;126661;1309;114879;-62
2024/04/22 14:36:57;;;;;;;;;;;;;;;;;;;;;
2024/04/22 14:40:25;;;;;;;5.20;2.20;;;;;;;8.39;43.13;100871.61;126069;1315;127472;-61
2024/04/22 14:43:54;;;;;;;2.80;1.70;;;;;;;8.37;43.13;100873.45;126342;1310;115076;-61
2024/04/22 14:47:38;;;;;;;;;;;;;;;;;;;;;
2024/04/22 14:51:41;;;;;;;1.90;1.20;;;;;;;8.33;43.05;100875.00;126581;1306;114895;-61
2024/04/22 14:55:23;;;;;;;5.20;2.90;;;;;;;8.32;43.00;100870.94;126479;1310;114886;-60
2024/04/22 14:59:08;;;;;;;1.90;0.90;;;;;;;8.43;43.22;100866.68;126077;1300;130055;-61
2024/04/22 15:06:53;;;;;;;2.50;1.20;;;;;;;8.23;41.99;100865.33;126358;1310;114934;-61
2024/04/22 15:10:10;;;;;;;3.50;1.80;;;;;;;7.96;42.49;100867.55;126526;1290;114864;-61
2024/04/22 15:14:06;;;;;;;3.70;1.70;;;;;;;7.92;42.67;100873.20;126795;1302;114940;-60
2024/04/22 15:17:36;;;;;;;3.40;1.70;;;;;;;7.85;42.71;100874.99;126730;1307;129944;-63
2024/04/22 15:21:08;;;;;;;4.60;2.30;;;;;;;7.75;43.06;100876.89;126539;1308;114955;-61
2024/04/22 15:24:38;;;;;;;4.70;2.70;;;;;;;7.56;43.06;100880.45;126914;1299;114972;-60
2024/04/22 15:28:32;;;;;;;4.70;1.90;;;;;;;7.39;43.21;100883.57;127377;1304;114968;-61
2024/04/22 15:32:15;;;;;;;6.60;3.50;;;;;;;7.30;43.93;100886.98;126899;1305;114873;-61
2024/04/22 15:36:08;;;;;;;4.60;2.80;;;;;;;7.16;43.86;100887.00;126713;1283;128909;-60
2024/04/22 15:39:45;;;;;;;5.60;3.20;;;;;;;7.00;43.82;100890.95;126749;1289;114971;-61
2024/04/22 15:43:00;;;;;;;4.40;1.90;;;;;;;6.93;44.13;100889.38;126827;1289;116146;-63
2024/04/22 15:46:44;;;;;;;;;;;;;;;;;;;;;
2024/04/22 15:50:25;;;;;;;;;;;;;;;;;;;;;
2024/04/22 15:54:12;;;;;;;5.50;2.80;;;;;;;6.59;44.74;100891.27;127180;1283;128847;-61
2024/04/22 16:01:33;;;;;;;9.30;4.20;;;;;;;6.50;44.98;100895.34;127323;1296;114881;-60
2024/04/22 16:05:23;;;;;;;8.50;4.70;;;;;;;6.51;45.22;100894.97;127432;1296;114933;-60
2024/04/22 16:09:21;;;;;;;5.70;2.40;;;;;;;6.60;45.47;100899.58;127333;1301;114895;-60
2024/04/22 16:12:39;;;;;;;4.10;2.40;;;;;;;6.66;45.67;100902.61;127533;1282;128706;-61
2024/04/22 16:16:00;;;;;;;3.70;2.10;;;;;;;6.72;45.99;100899.45;127634;1274;114930;-61
2024/04/22 16:19:46;;;;;;;5.00;2.70;;;;;;;6.77;46.12;100901.83;128288;1278;114821;-61
2024/04/22 16:23:25;;;;;;;;;;;;;;;;;;;;;
2024/04/22 16:26:48;;;;;;;6.50;3.20;;;;;;;6.77;45.84;100900.23;128237;1295;114972;-60
2024/04/22 16:30:03;;;;;;;;;;;;;;;;;;;;;
2024/04/22 16:33:37;;;;;;;2.90;2.00;;;;;;;6.64;46.17;100898.94;128202;1295;114981;-61
2024/04/22 16:37:26;;;;;;;4.10;2.40;;;;;;;6.58;46.15;100893.06;128291;1276;114894;-61
2024/04/22 16:40:47;;;;;;;3.70;2.00;;;;;;;6.56;46.44;100894.50;129001;1264;114823;-61
2024/04/22 16:44:14;;;;;;;3.60;2.40;;;;;;;6.50;46.36;100892.51;128986;1288;114773;-61
2024/04/22 16:48:00;;;;;;;3.20;1.90;;;;;;;6.43;46.49;100890.90;129651;1260;128727;-61
2024/04/22 16:51:29;;;;;;;3.40;2.60;;;;;;;6.29;46.80;100886.61;129379;1280;114915;-61
2024/04/22 16:54:54;;;;;;;;;;;;;;;;;;;;;
2024/04/22 16:58:44;;;;;;;4.20;2.50;;;;;;;6.03;47.02;100890.17;129657;1260;114839;-60
2024/04/22 17:06:30;;;;;;;;;;;;;;;;;;;;;
2024/04/22 17:10:10;;;;;;;7.00;4.00;;;;;;;5.60;48.02;100896.67;128969;1270;115210;-60
2024/04/22 17:13:40;;;;;;;;;;;;;;;5.44;48.04;100902.83;129133;1268;115095;-61
2024/04/22 17:17:20;;;;;;;8.30;3.10;;;;;;;5.29;48.39;100898.68;128878;1286;114946;-60
2024/04/22 17:20:47;;;;;;;8.70;3.50;;;;;;;5.13;48.78;100901.25;128749;1286;115094;-61
2024/04/22 17:24:20;;;;;;;;;;;;;;;;;;;;;
2024/04/22 17:27:51;;;;;;;;;;;;;;;;;;;;;
2024/04/22 17:31:25;;;;;;;7.50;3.00;;;;;;;4.64;50.24;100906.65;128915;1284;114892;-60
2024/04/22 17:35:17;;;;;;;4.60;3.10;;;;;;;4.50;50.50;100906.33;129201;1267;114862;-61
2024/04/22 17:38:46;;;;;;;;;;;;;;;;;;;;;
2024/04/22 17:42:35;;;;;;;4.20;2.30;;;;;;;4.20;51.42;100907.09;129189;1286;127636;-61
2024/04/22 17:46:28;;;;;;;;;;;;;;;;;;;;;
2024/04/22 17:49:39;;;;;;;4.40;2.20;;;;;;;3.81;52.48;100908.46;128233;1292;116400;-60
2024/04/22 17:52:41;;;;;;;4.30;2.00;;;;;;;3.67;52.64;100913.41;128620;1286;114862;-60
2024/04/22 17:55:48;;;;;;;4.00;2.30;;;;;;;3.56;52.98;100909.98;128593;1292;114956;-61
2024/04/22 17:58:56;;;;;;;3.30;2.20;;;;;;;3.45;53.36;100918.73;128625;1283;129888;-62
2024/04/22 18:06:30;;;;;;;4.70;3.10;;;;;;;3.18;54.10;100922.71;127881;1283;114964;-60
2024/04/22 18:10:16;;;;;;;7.20;5.10;;;;;;;3.03;54.53;100924.59;128120;1297;114864;-61
2024/04/22 18:18:08;;;;;;;;;;;;;;;;;;;;;
2024/04/22 18:25:45;;;;;;;;;;;;;;;;;;;;;
2024/04/22 18:32:59;;;;;;;11.80;8.20;;;;;;;2.19;56.53;100950.71;124158;1280;115453;-60
2024/04/22 18:36:02;;;;;;;12.20;7.40;;;;;;;2.07;56.76;100952.16;127795;1282;115255;-60
2024/04/22 18:39:55;;;;;;;;;;;;;;;;;;;;;
2024/04/22 18:43:42;;;;;;;;;;;;;;;;;;;;;
2024/04/22 18:47:29;;;;;;;;;;;;;;;;;;;;;
2024/04/22 18:51:26;;;;;;;;;;;;;;;;;;;;;
2024/04/22 18:55:33;;;;;;;20.30;10.10;;;;;;;1.50;58.19;100976.63;126177;1313;114782;-62
2024/04/22 18:59:24;;;;;;;21.10;11.30;;;;;;;1.39;58.35;100980.16;125069;1298;115176;-59
2024/04/22 19:02:57;;;;;;;23.50;12.30;;;;;;;1.28;58.93;100983.67;125081;1306;129788;-59
2024/04/22 19:06:50;;;;;;;;;;;;;;;;;;;;;
2024/04/22 19:10:42;;;;;;;;;;;;;;;;;;;;;
2024/04/22 19:14:37;;;;;;;27.40;15.70;;;;;;;0.93;59.70;100984.55;123614;1315;114974;-58
2024/04/22 19:18:09;;;;;;;24.80;14.40;;;;;;;0.81;59.96;100989.62;123368;1324;115008;-60
2024/04/22 19:21:46;;;;;;;;;;;;;;;;;;;;;
2024/04/22 19:25:48;;;;;;;;;;;;;;;;;;;;;
2024/04/22 19:33:54;;;;;;;24.40;15.80;;;;;;;0.41;61.21;100990.05;126185;1294;638595;-60
2024/04/22 19:37:44;;;;;;;;;;;;;;;;;;;;;
2024/04/22 19:41:31;;;;;;;24.80;12.40;;;;;;;0.23;61.85;100988.41;128466;1295;114880;-61
2024/04/22 19:45:21;;;;;;;28.90;12.90;;;;;;;0.16;62.03;100985.92;129312;1264;114794;-60
2024/04/22 19:48:54;;;;;;;26.50;13.80;;;;;;;0.06;62.52;100984.29;124968;1274;114930;-60
2024/04/22 19:52:17;;;;;;;24.90;12.40;;;;;;;-0.01;62.59;100983.55;128648;1274;114856;-59
2024/04/22 19:55:26;;;;;;;39.70;16.00;;;;;;;-0.08;62.92;100984.93;128842;1290;114929;-60
2024/04/22 19:58:33;;;;;;;38.50;19.40;;;;;;;-0.13;63.22;100985.95;128827;1290;129023;-59
2024/04/22 20:02:37;;;;;;;37.30;15.70;;;;;;;-0.17;63.31;100986.81;128736;1287;115056;-59
2024/04/22 20:06:29;;;;;;;33.90;16.30;;;;;;;-0.23;63.60;100992.39;128805;1290;114842;-60
2024/04/22 20:10:31;;;;;;;31.60;15.20;;;;;;;-0.29;63.94;100992.88;128851;1273;114824;-59
2024/04/22 20:13:56;;;;;;;26.80;14.80;;;;;;;-0.37;64.44;100987.21;127502;1283;114957;-61
2024/04/22 20:21:49;;;;;;;27.80;14.70;;;;;;;-0.49;64.52;100988.20;127935;1293;114942;-60
2024/04/22 20:25:44;;;;;;;;;;;;;;;;;;;;;
2024/04/22 20:29:46;;;;;;;28.80;16.00;;;;;;;-0.62;64.85;100993.54;128709;1283;114911;-60
2024/04/22 20:33:34;;;;;;;31.40;15.10;;;;;;;-0.67;64.75;100990.88;127268;1301;114969;-59
2024/04/22 20:37:33;;;;;;;33.30;15.10;;;;;;;-0.72;65.12;100986.95;126319;1293;129825;-60
2024/04/22 20:41:25;;;;;;;29.40;15.60;;;;;;;-0.78;65.78;100982.36;126138;1310;114880;-60
2024/04/22 20:45:27;;;;;;;34.50;16.10;;;;;;;-0.82;65.88;100977.59;126441;1310;114937;-60
2024/04/22 20:49:11;;;;;;;;;;;;;;;-0.88;66.13;100977.70;125313;1319;114794;-62
2024/04/22 20:53:11;;;;;;;37.90;20.40;;;;;;;-0.95;65.91;100983.27;125460;1310;115071;-65
2024/04/22 20:56:29;;;;;;;;;;;;;;;;;;;;;